createdAt,value
2023-01-20T00:01:53.152Z,6.50
2023-01-20T00:04:21.042Z,8.60
2023-01-20T00:06:49.031Z,7.33
2023-01-20T00:09:19.048Z,7.10
2023-01-20T00:11:47.360Z,7.70
2023-01-20T00:14:15.459Z,8.10
2023-01-20T00:16:43.430Z,7.77
2023-01-20T00:19:13.366Z,7.90
2023-01-20T00:21:41.712Z,8.47
2023-01-20T00:24:09.583Z,7.73
2023-01-20T00:26:38.837Z,8.13
2023-01-20T00:29:06.715Z,8.30
2023-01-20T00:31:34.707Z,7.20
2023-01-20T00:34:03.348Z,6.97
2023-01-20T00:36:33.080Z,7.10
2023-01-20T00:39:02.748Z,6.70
2023-01-20T00:41:30.706Z,7.40
2023-01-20T00:43:59.962Z,7.73
2023-01-20T00:46:28.460Z,7.67
2023-01-20T00:48:56.465Z,8.40
2023-01-20T00:51:24.281Z,8.17
2023-01-20T00:53:52.169Z,7.00
2023-01-20T00:56:20.105Z,7.70
2023-01-20T00:58:47.901Z,7.40
2023-01-20T01:01:17.210Z,7.80
2023-01-20T01:03:45.406Z,8.13
2023-01-20T01:06:16.147Z,6.90
2023-01-20T01:08:45.347Z,7.40
2023-01-20T01:11:14.325Z,7.70
2023-01-20T01:13:42.741Z,7.80
2023-01-20T01:16:14.259Z,7.77
2023-01-20T01:18:43.947Z,7.33
2023-01-20T01:21:14.332Z,7.93
2023-01-20T01:23:42.576Z,7.27
2023-01-20T01:26:11.084Z,7.43
2023-01-20T01:28:39.139Z,7.67
2023-01-20T01:31:08.339Z,7.50
2023-01-20T01:33:36.994Z,7.97
2023-01-20T01:36:08.563Z,8.43
2023-01-20T01:38:36.495Z,7.80
2023-01-20T01:41:04.412Z,7.73
2023-01-20T01:43:34.076Z,8.00
2023-01-20T01:46:02.585Z,8.17
2023-01-20T01:48:35.109Z,8.60
2023-01-20T01:51:06.948Z,8.80
2023-01-20T01:53:40.280Z,8.47
2023-01-20T01:56:09.315Z,8.37
2023-01-20T01:58:40.311Z,8.10
2023-01-20T02:01:08.904Z,8.60
2023-01-20T02:03:44.703Z,8.77
2023-01-20T02:06:15.309Z,9.00
2023-01-20T02:08:43.618Z,9.73
2023-01-20T02:11:11.487Z,10.43
2023-01-20T02:13:40.001Z,9.40
2023-01-20T02:16:14.910Z,10.80
2023-01-20T02:18:56.358Z,10.67
2023-01-20T02:21:59.268Z,9.70
2023-01-20T02:24:56.476Z,10.57
2023-01-20T02:27:38.495Z,10.80
2023-01-20T02:30:40.478Z,11.33
2023-01-20T02:33:14.475Z,10.63
2023-01-20T02:35:46.883Z,10.30
2023-01-20T02:38:21.857Z,10.27
2023-01-20T02:40:57.351Z,10.90
2023-01-20T02:43:33.965Z,10.07
2023-01-20T02:46:09.837Z,12.10
2023-01-20T02:48:45.107Z,10.20
2023-01-20T02:51:18.337Z,10.93
2023-01-20T02:53:50.010Z,10.03
2023-01-20T02:56:20.260Z,10.93
2023-01-20T02:58:56.802Z,10.53
2023-01-20T03:01:41.298Z,11.30
2023-01-20T03:04:20.179Z,10.37
2023-01-20T03:07:00.260Z,11.20
2023-01-20T03:09:54.696Z,11.17
2023-01-20T03:12:55.845Z,11.10
2023-01-20T03:15:39.711Z,10.80
2023-01-20T03:18:08.801Z,9.50
2023-01-20T03:20:38.756Z,10.57
2023-01-20T03:23:06.633Z,9.97
2023-01-20T03:25:35.449Z,11.70
2023-01-20T03:28:03.338Z,11.90
2023-01-20T03:30:31.353Z,11.40
2023-01-20T03:33:00.095Z,11.13
2023-01-20T03:35:28.157Z,10.97
2023-01-20T03:37:57.837Z,11.47
2023-01-20T03:40:30.130Z,11.30
2023-01-20T03:43:02.673Z,10.97
2023-01-20T03:45:40.651Z,10.40
2023-01-20T03:48:14.251Z,10.80
2023-01-20T03:50:47.412Z,10.40
2023-01-20T03:53:28.221Z,11.03
2023-01-20T03:56:04.700Z,11.00
2023-01-20T03:58:35.451Z,10.20
2023-01-20T04:01:17.970Z,10.50
2023-01-20T04:03:49.463Z,10.67
2023-01-20T04:06:20.265Z,10.83
2023-01-20T04:08:56.987Z,11.00
2023-01-20T04:11:26.114Z,10.63
2023-01-20T04:13:54.377Z,10.73
2023-01-20T04:16:23.769Z,10.73
2023-01-20T04:18:53.241Z,10.73
2023-01-20T04:21:26.073Z,10.07
2023-01-20T04:24:01.808Z,10.23
2023-01-20T04:26:30.004Z,10.00
2023-01-20T04:28:58.208Z,10.63
2023-01-20T04:31:30.868Z,9.90
2023-01-20T04:33:59.479Z,10.00
2023-01-20T04:36:27.712Z,8.93
2023-01-20T04:38:57.613Z,9.27
2023-01-20T04:41:25.810Z,8.63
2023-01-20T04:43:54.110Z,8.70
2023-01-20T04:46:22.426Z,8.53
2023-01-20T04:48:50.666Z,8.77
2023-01-20T04:51:18.728Z,9.13
2023-01-20T04:53:46.513Z,8.00
2023-01-20T04:56:16.572Z,8.27
2023-01-20T04:58:44.789Z,7.37
2023-01-20T05:01:12.704Z,7.40
2023-01-20T05:03:40.636Z,8.03
2023-01-20T05:06:10.212Z,7.60
2023-01-20T05:08:38.283Z,7.17
2023-01-20T05:11:06.710Z,7.63
2023-01-20T05:13:39.243Z,7.53
2023-01-20T05:16:07.885Z,7.23
2023-01-20T05:18:36.415Z,7.40
2023-01-20T05:21:05.308Z,7.23
2023-01-20T05:23:33.132Z,7.43
2023-01-20T05:26:01.007Z,7.40
2023-01-20T05:28:28.886Z,8.03
2023-01-20T05:30:58.158Z,7.23
2023-01-20T05:33:26.099Z,7.63
2023-01-20T05:35:56.020Z,7.37
2023-01-20T05:38:24.025Z,7.47
2023-01-20T05:40:51.840Z,6.87
2023-01-20T05:43:19.605Z,7.73
2023-01-20T05:45:47.670Z,7.60
2023-01-20T05:48:16.952Z,7.60
2023-01-20T05:50:45.243Z,7.37
2023-01-20T05:53:13.113Z,7.93
2023-01-20T05:55:41.016Z,8.17
2023-01-20T05:58:10.227Z,7.03
2023-01-20T06:00:38.298Z,7.60
2023-01-20T06:03:06.517Z,8.33
2023-01-20T06:05:35.735Z,9.43
2023-01-20T06:08:03.687Z,9.93
2023-01-20T06:10:31.541Z,10.67
2023-01-20T06:12:59.405Z,10.97
2023-01-20T06:15:27.380Z,10.47
2023-01-20T06:17:56.490Z,10.03
2023-01-20T06:20:24.371Z,10.70
2023-01-20T06:22:56.922Z,14.53
2023-01-20T06:25:24.810Z,13.10
2023-01-20T06:27:52.628Z,11.77
2023-01-20T06:30:20.812Z,12.60
2023-01-20T06:32:49.037Z,11.33
2023-01-20T06:35:17.562Z,13.13
2023-01-20T06:37:45.331Z,11.90
2023-01-20T06:40:15.686Z,13.67
2023-01-20T06:42:43.679Z,11.80
2023-01-20T06:45:12.635Z,10.47
2023-01-20T06:47:40.683Z,9.03
2023-01-20T06:50:09.681Z,8.13
2023-01-20T06:52:37.551Z,7.60
2023-01-20T06:55:06.399Z,7.10
2023-01-20T06:57:35.668Z,7.77
2023-01-20T07:00:04.945Z,7.73
2023-01-20T07:02:32.796Z,7.60
2023-01-20T07:05:00.819Z,7.27
2023-01-20T07:07:28.648Z,8.67
2023-01-20T07:09:56.482Z,8.10
2023-01-20T07:12:24.418Z,8.07
2023-01-20T07:14:53.619Z,7.97
2023-01-20T07:17:21.460Z,9.70
2023-01-20T07:19:49.321Z,14.47
2023-01-20T07:22:17.139Z,12.93
2023-01-20T07:24:44.983Z,13.77
2023-01-20T07:27:12.785Z,17.27
2023-01-20T07:29:40.756Z,17.43
2023-01-20T07:32:10.169Z,17.17
2023-01-20T07:34:38.107Z,10.93
2023-01-20T07:37:05.952Z,10.33
2023-01-20T07:39:36.264Z,13.40
2023-01-20T07:42:04.168Z,17.23
2023-01-20T07:44:33.553Z,13.97
2023-01-20T07:47:01.549Z,10.97
2023-01-20T07:49:30.772Z,9.63
2023-01-20T07:51:58.600Z,9.00
2023-01-20T07:54:26.434Z,7.93
2023-01-20T07:56:54.266Z,8.37
2023-01-20T07:59:22.369Z,10.20
2023-01-20T08:01:50.346Z,8.40
2023-01-20T08:04:18.464Z,9.80
2023-01-20T08:06:48.144Z,10.97
2023-01-20T08:09:16.125Z,10.23
2023-01-20T08:11:44.037Z,9.90
2023-01-20T08:14:11.951Z,10.13
2023-01-20T08:16:39.838Z,10.80
2023-01-20T08:19:07.740Z,9.47
2023-01-20T08:21:35.636Z,8.47
2023-01-20T08:24:06.625Z,8.43
2023-01-20T08:26:35.091Z,8.77
2023-01-20T08:29:04.379Z,9.20
2023-01-20T08:31:32.539Z,9.97
2023-01-20T08:34:00.901Z,8.80
2023-01-20T08:36:31.731Z,8.90
2023-01-20T08:39:02.796Z,8.60
2023-01-20T08:41:34.144Z,9.07
2023-01-20T08:44:04.406Z,10.93
2023-01-20T08:46:33.238Z,16.83
2023-01-20T08:49:01.174Z,19.60
2023-01-20T08:51:31.125Z,13.07
2023-01-20T08:53:59.641Z,16.40
2023-01-20T08:56:27.847Z,32.70
2023-01-20T08:58:57.401Z,36.60
2023-01-20T09:01:27.243Z,28.43
2023-01-20T09:04:05.354Z,24.80
2023-01-20T09:06:39.568Z,27.60
2023-01-20T09:09:07.736Z,23.13
2023-01-20T09:11:36.062Z,19.90
2023-01-20T09:14:05.393Z,20.10
2023-01-20T09:16:33.296Z,21.57
2023-01-20T09:19:01.151Z,20.93
2023-01-20T09:21:28.993Z,20.90
2023-01-20T09:23:56.870Z,20.93
2023-01-20T09:26:35.362Z,16.57
2023-01-20T09:29:09.608Z,14.63
2023-01-20T09:31:38.336Z,10.07
2023-01-20T09:34:06.328Z,10.67
2023-01-20T09:36:34.549Z,9.27
2023-01-20T09:39:20.123Z,8.73
2023-01-20T09:42:06.858Z,10.63
2023-01-20T09:44:48.041Z,17.30
2023-01-20T09:47:26.492Z,25.03
2023-01-20T09:50:36.482Z,22.00
2023-01-20T09:53:08.124Z,13.60
2023-01-20T09:55:45.657Z,12.03
2023-01-20T09:58:21.896Z,11.13
2023-01-20T10:00:57.496Z,12.97
2023-01-20T10:03:36.962Z,14.70
2023-01-20T10:06:11.183Z,15.20
2023-01-20T10:08:59.615Z,12.10
2023-01-20T10:11:36.664Z,11.27
2023-01-20T10:14:11.157Z,10.13
2023-01-20T10:16:45.262Z,10.87
2023-01-20T10:19:19.501Z,10.23
2023-01-20T10:21:53.957Z,10.73
2023-01-20T10:24:29.454Z,11.07
2023-01-20T10:27:02.309Z,11.63
2023-01-20T10:29:35.669Z,10.77
2023-01-20T10:32:10.827Z,9.73
2023-01-20T10:34:46.283Z,8.17
2023-01-20T10:37:15.952Z,10.50
2023-01-20T10:39:50.034Z,17.07
2023-01-20T10:42:20.426Z,52.33
2023-01-20T10:44:50.435Z,17.33
2023-01-20T10:47:26.216Z,29.70
2023-01-20T10:50:12.084Z,39.43
2023-01-20T10:52:52.321Z,13.43
2023-01-20T10:55:30.671Z,28.87
2023-01-20T10:58:02.948Z,31.50
2023-01-20T11:00:32.976Z,24.87
2023-01-20T11:03:05.521Z,10.77
2023-01-20T11:05:38.164Z,8.10
2023-01-20T11:08:11.517Z,13.60
2023-01-20T11:10:39.548Z,7.27
2023-01-20T11:13:07.344Z,15.87
2023-01-20T11:15:39.819Z,12.37
2023-01-20T11:18:28.948Z,11.40
2023-01-20T11:21:00.839Z,11.90
2023-01-20T11:23:36.569Z,9.13
2023-01-20T11:26:10.147Z,6.83
2023-01-20T11:28:47.945Z,7.73
2023-01-20T11:31:16.412Z,8.07
2023-01-20T11:33:59.038Z,17.43
2023-01-20T11:36:27.610Z,11.23
2023-01-20T11:38:57.392Z,6.63
2023-01-20T11:41:27.321Z,10.60
2023-01-20T11:43:57.180Z,11.73
2023-01-20T11:46:28.189Z,19.50
2023-01-20T11:49:18.857Z,11.23
2023-01-20T11:51:52.525Z,20.53
2023-01-20T11:54:22.915Z,10.43
2023-01-20T11:56:55.455Z,9.63
2023-01-20T11:59:28.103Z,8.83
2023-01-20T12:02:01.511Z,8.47
2023-01-20T12:04:50.754Z,8.83
2023-01-20T12:07:24.613Z,7.50
2023-01-20T12:09:56.719Z,6.50
2023-01-20T12:12:32.311Z,7.47
2023-01-20T12:15:05.987Z,19.67
2023-01-20T12:17:42.094Z,7.03
2023-01-20T12:20:20.980Z,6.90
2023-01-20T12:23:05.856Z,5.73
2023-01-20T12:25:43.245Z,5.73
2023-01-20T12:28:17.540Z,5.00
2023-01-20T12:30:59.030Z,5.20
2023-01-20T12:33:30.046Z,5.30
2023-01-20T12:36:11.635Z,5.87
2023-01-20T12:38:47.964Z,5.03
2023-01-20T12:41:25.106Z,5.40
2023-01-20T12:44:02.220Z,3.87
2023-01-20T12:46:43.260Z,4.93
2023-01-20T12:49:41.079Z,5.57
2023-01-20T12:52:40.324Z,4.70
2023-01-20T12:55:39.733Z,5.23
2023-01-20T12:58:21.824Z,5.13
2023-01-20T13:01:18.161Z,4.87
2023-01-20T13:04:12.746Z,4.10
2023-01-20T13:07:04.284Z,4.07
2023-01-20T13:10:04.546Z,4.40
2023-01-20T13:12:46.364Z,8.00
2023-01-20T13:15:20.123Z,8.23
2023-01-20T13:18:02.150Z,5.10
2023-01-20T13:20:31.634Z,11.07
2023-01-20T13:23:02.901Z,3.90
2023-01-20T13:25:33.207Z,3.20
2023-01-20T13:28:02.604Z,3.83
2023-01-20T13:30:44.451Z,3.50
2023-01-20T13:33:18.364Z,4.30
2023-01-20T13:35:49.472Z,6.27
2023-01-20T13:38:27.714Z,3.53
2023-01-20T13:41:02.973Z,11.20
2023-01-20T13:43:46.902Z,10.40
2023-01-20T13:46:47.342Z,4.87
2023-01-20T13:49:22.926Z,5.30
2023-01-20T13:51:51.476Z,4.20
2023-01-20T13:54:38.627Z,3.40
2023-01-20T13:57:41.221Z,2.93
2023-01-20T14:00:17.594Z,3.00
2023-01-20T14:02:47.350Z,2.87
2023-01-20T14:05:29.695Z,2.57
2023-01-20T14:07:58.763Z,3.23
2023-01-20T14:10:27.207Z,2.93
2023-01-20T14:12:56.478Z,3.80
2023-01-20T14:15:33.708Z,4.23
2023-01-20T14:18:02.206Z,4.17
2023-01-20T14:20:31.296Z,3.37
2023-01-20T14:23:26.185Z,3.50
2023-01-20T14:26:02.579Z,2.70
2023-01-20T14:28:32.566Z,17.10
2023-01-20T14:31:22.761Z,58.00
2023-01-20T14:33:57.583Z,7.57
2023-01-20T14:36:28.092Z,8.47
2023-01-20T14:38:58.671Z,9.10
2023-01-20T14:41:30.103Z,8.60
2023-01-20T14:44:36.275Z,11.83
2023-01-20T14:47:30.862Z,12.33
2023-01-20T14:50:26.295Z,15.37
2023-01-20T14:53:34.458Z,10.17
2023-01-20T14:56:04.023Z,15.97
2023-01-20T14:58:32.576Z,12.07
2023-01-20T15:01:04.154Z,16.53
2023-01-20T15:03:32.854Z,9.97
2023-01-20T15:06:02.603Z,7.23
2023-01-20T15:09:04.370Z,7.70
2023-01-20T15:11:34.180Z,6.83
2023-01-20T15:14:10.130Z,6.17
2023-01-20T15:16:49.374Z,5.90
2023-01-20T15:19:35.625Z,7.10
2023-01-20T15:22:22.878Z,12.67
2023-01-20T15:24:51.753Z,15.30
2023-01-20T15:27:29.091Z,13.77
2023-01-20T15:30:02.696Z,20.63
2023-01-20T15:32:31.940Z,18.83
2023-01-20T15:34:59.806Z,14.57
2023-01-20T15:37:27.748Z,11.47
2023-01-20T15:39:55.665Z,12.30
2023-01-20T15:42:24.358Z,11.37
2023-01-20T15:44:52.203Z,11.30
2023-01-20T15:47:25.987Z,25.17
2023-01-20T15:49:55.188Z,19.63
2023-01-20T15:52:23.094Z,12.67
2023-01-20T15:54:50.973Z,10.37
2023-01-20T15:57:19.876Z,8.07
2023-01-20T15:59:49.744Z,8.40
2023-01-20T16:02:19.242Z,8.83
2023-01-20T16:04:47.111Z,11.60
2023-01-20T16:07:18.393Z,12.07
2023-01-20T16:09:46.942Z,9.73
2023-01-20T16:12:16.791Z,8.43
2023-01-20T16:14:44.835Z,7.83
2023-01-20T16:17:17.216Z,9.83
2023-01-20T16:19:45.270Z,10.30
2023-01-20T16:22:14.115Z,11.40
2023-01-20T16:24:43.884Z,9.70
2023-01-20T16:27:18.392Z,17.63
2023-01-20T16:29:46.408Z,15.10
2023-01-20T16:32:17.176Z,19.40
2023-01-20T16:34:46.572Z,16.87
2023-01-20T16:37:15.325Z,22.70
2023-01-20T16:39:44.571Z,21.53
2023-01-20T16:42:13.072Z,25.40
2023-01-20T16:44:40.956Z,23.10
2023-01-20T16:47:09.176Z,21.47
2023-01-20T16:49:37.081Z,20.97
2023-01-20T16:52:05.411Z,20.43
2023-01-20T16:54:33.374Z,15.10
2023-01-20T16:57:02.605Z,14.17
2023-01-20T16:59:30.502Z,12.73
2023-01-20T17:01:58.593Z,11.90
2023-01-20T17:04:26.425Z,13.73
2023-01-20T17:06:54.514Z,13.03
2023-01-20T17:09:22.351Z,13.60
2023-01-20T17:11:50.184Z,11.80
2023-01-20T17:14:19.395Z,11.33
2023-01-20T17:16:47.227Z,12.47
2023-01-20T17:19:17.659Z,11.47
2023-01-20T17:21:45.651Z,14.30
2023-01-20T17:24:13.502Z,15.13
2023-01-20T17:26:41.454Z,13.17
2023-01-20T17:29:11.077Z,12.97
2023-01-20T17:31:42.897Z,12.23
2023-01-20T17:34:12.349Z,12.10
2023-01-20T17:36:40.228Z,12.03
2023-01-20T17:39:08.865Z,11.73
2023-01-20T17:41:36.784Z,10.40
2023-01-20T17:44:06.670Z,10.13
2023-01-20T17:46:34.553Z,10.77
2023-01-20T17:49:06.857Z,12.70
2023-01-20T17:51:34.963Z,12.30
2023-01-20T17:54:04.062Z,14.97
2023-01-20T17:56:32.364Z,13.53
2023-01-20T17:59:00.275Z,11.90
2023-01-20T18:01:30.294Z,12.30
2023-01-20T18:03:59.201Z,11.87
2023-01-20T18:06:30.477Z,11.00
2023-01-20T18:09:00.538Z,11.10
2023-01-20T18:11:30.805Z,11.50
2023-01-20T18:14:00.363Z,11.97
2023-01-20T18:16:30.125Z,14.87
2023-01-20T18:18:59.453Z,14.43
2023-01-20T18:21:30.784Z,13.80
2023-01-20T18:24:00.014Z,13.67
2023-01-20T18:26:30.394Z,14.10
2023-01-20T18:29:00.060Z,14.57
2023-01-20T18:31:29.846Z,14.07
2023-01-20T18:33:59.415Z,13.43
2023-01-20T18:36:30.491Z,13.80
2023-01-20T18:39:00.699Z,14.73
2023-01-20T18:41:30.500Z,13.97
2023-01-20T18:43:58.808Z,16.37
2023-01-20T18:46:27.765Z,14.27
2023-01-20T18:48:56.207Z,14.60
2023-01-20T18:51:29.564Z,13.70
2023-01-20T18:53:59.253Z,13.50
2023-01-20T18:56:27.943Z,14.20
2023-01-20T18:58:56.322Z,14.60
2023-01-20T19:01:27.794Z,16.27
2023-01-20T19:03:56.278Z,15.80
2023-01-20T19:06:26.398Z,16.83
2023-01-20T19:08:57.482Z,17.93
2023-01-20T19:11:27.976Z,16.20
2023-01-20T19:13:56.959Z,15.73
2023-01-20T19:16:27.254Z,16.50
2023-01-20T19:18:59.880Z,16.60
2023-01-20T19:21:28.524Z,16.70
2023-01-20T19:24:01.222Z,16.13
2023-01-20T19:26:29.654Z,16.97
2023-01-20T19:28:59.990Z,15.80
2023-01-20T19:31:27.933Z,17.53
2023-01-20T19:33:55.804Z,17.47
2023-01-20T19:36:24.264Z,17.33
2023-01-20T19:38:52.787Z,13.83
2023-01-20T19:41:25.659Z,12.67
2023-01-20T19:43:55.355Z,10.90
2023-01-20T19:46:24.450Z,11.27
2023-01-20T19:48:53.241Z,11.70
2023-01-20T19:51:21.561Z,11.30
2023-01-20T19:53:50.777Z,10.30
2023-01-20T19:56:20.742Z,9.43
2023-01-20T19:58:49.977Z,8.67
2023-01-20T20:01:21.057Z,8.80
2023-01-20T20:03:50.025Z,9.60
2023-01-20T20:06:27.748Z,8.93
2023-01-20T20:08:59.009Z,8.17
2023-01-20T20:11:27.657Z,8.67
2023-01-20T20:13:58.102Z,9.43
2023-01-20T20:16:28.255Z,8.80
2023-01-20T20:18:57.355Z,9.00
2023-01-20T20:21:25.707Z,9.60
2023-01-20T20:23:55.578Z,11.23
2023-01-20T20:26:25.867Z,11.13
2023-01-20T20:28:54.263Z,10.97
2023-01-20T20:31:28.822Z,13.33
2023-01-20T20:33:57.797Z,13.77
2023-01-20T20:36:28.200Z,12.00
2023-01-20T20:38:58.300Z,11.40
2023-01-20T20:41:29.072Z,11.20
2023-01-20T20:43:57.495Z,11.00
2023-01-20T20:46:27.433Z,10.43
2023-01-20T20:48:56.826Z,11.30
2023-01-20T20:51:24.775Z,11.63
2023-01-20T20:53:55.720Z,11.77
2023-01-20T20:56:24.524Z,12.33
2023-01-20T20:59:01.369Z,13.13
2023-01-20T21:01:33.423Z,12.83
2023-01-20T21:04:01.790Z,14.57
2023-01-20T21:06:30.471Z,15.03
2023-01-20T21:08:59.253Z,15.90
2023-01-20T21:11:27.603Z,14.60
2023-01-20T21:13:55.952Z,15.30
2023-01-20T21:16:24.774Z,13.03
2023-01-20T21:18:56.210Z,13.97
2023-01-20T21:21:24.760Z,13.27
2023-01-20T21:23:54.636Z,13.23
2023-01-20T21:26:23.456Z,12.17
2023-01-20T21:28:51.297Z,12.00
2023-01-20T21:31:21.905Z,11.67
2023-01-20T21:33:54.926Z,11.50
2023-01-20T21:36:22.869Z,10.13
2023-01-20T21:38:51.100Z,10.23
2023-01-20T21:41:19.751Z,10.70
2023-01-20T21:44:05.972Z,10.40
2023-01-20T21:46:38.384Z,10.73
2023-01-20T21:49:26.057Z,10.30
2023-01-20T21:52:11.838Z,10.97
2023-01-20T21:54:41.271Z,9.13
2023-01-20T21:57:09.961Z,9.43
2023-01-20T21:59:37.889Z,8.33
2023-01-20T22:02:06.388Z,8.37
2023-01-20T22:04:35.603Z,11.30
2023-01-20T22:07:03.522Z,12.97
2023-01-20T22:09:31.367Z,10.30
2023-01-20T22:11:59.164Z,9.33
2023-01-20T22:14:27.115Z,9.07
2023-01-20T22:16:54.958Z,8.53
2023-01-20T22:19:22.798Z,8.20
2023-01-20T22:21:52.283Z,6.73
2023-01-20T22:24:20.175Z,9.37
2023-01-20T22:26:49.090Z,9.13
2023-01-20T22:29:17.526Z,9.60
2023-01-20T22:31:45.837Z,9.60
2023-01-20T22:34:14.297Z,9.40
2023-01-20T22:36:42.165Z,8.20
2023-01-20T22:39:13.004Z,9.53
2023-01-20T22:41:41.216Z,7.70
2023-01-20T22:44:09.254Z,7.80
2023-01-20T22:46:37.400Z,7.60
2023-01-20T22:49:05.259Z,7.33
2023-01-20T22:51:33.054Z,8.07
2023-01-20T22:54:02.372Z,7.87
2023-01-20T22:56:33.602Z,8.83
2023-01-20T22:59:01.864Z,8.33
2023-01-20T23:01:31.835Z,8.40
2023-01-20T23:04:02.058Z,7.13
2023-01-20T23:06:32.517Z,6.07
2023-01-20T23:09:00.548Z,6.03
2023-01-20T23:11:28.773Z,5.70
2023-01-20T23:13:58.227Z,5.70
2023-01-20T23:16:26.257Z,6.20
2023-01-20T23:18:54.126Z,5.73
2023-01-20T23:21:22.703Z,6.27
2023-01-20T23:23:54.495Z,7.20
2023-01-20T23:26:24.224Z,6.97
2023-01-20T23:28:53.491Z,7.50
2023-01-20T23:31:24.696Z,8.33
2023-01-20T23:33:54.489Z,9.80
2023-01-20T23:36:24.083Z,8.83
2023-01-20T23:38:54.164Z,9.00
2023-01-20T23:41:22.406Z,8.47
2023-01-20T23:43:50.476Z,9.00
2023-01-20T23:46:18.420Z,7.43
2023-01-20T23:48:47.961Z,6.87
2023-01-20T23:51:16.113Z,6.33
2023-01-20T23:53:44.276Z,5.83
2023-01-20T23:56:14.814Z,6.43
2023-01-20T23:58:42.881Z,6.10
